RKJK/KUV METAR and TAF weather

Enter ICAO airport designator
Station Type Date Time Source
RKJK METAR 2020/04/06 10:56 UTC NOAA

RKJK 061056Z AUTO 31009KT 10SM CLR 09/05 A3010 RMK AO2 SLP198 T00860050 $


Station Type Date Time Source
RKJK Decoded METAR 2020/04/06 10:56 UTC NOAA

Kunsan Ab, Korea, South (RKJK) 35-55N 126-37E 10M
Apr 06, 2020 - 06:56 AM EDT / 2020.04.06 1056 UTC
Wind: from the NW (310 degrees) at 10 MPH (9 KT):0
Visibility: 10 mile(s):0
Sky conditions: clear
Temperature: 47.5 F (8.6 C)
Dew Point: 41.0 F (5.0 C)
Relative Humidity: 78%
Pressure (altimeter): 30.1 in. Hg (1019 hPa)
ob: RKJK 061056Z AUTO 31009KT 10SM CLR 09/05 A3010 RMK AO2 SLP198 T00860050
cycle: 11

Station Type Date Time Source
RKJK TAF 2020/04/06 07:59 UTC NOAA

TAF
AMD RKJK 060750Z 0607/0713 31009KT 9999 FEW180 QNH3007INS
BECMG 0619/0620 15003KT 4800 BR SKC QNH3006INS
TEMPO 0622/0624 1600 BR
BECMG 0700/0701 27010G15KT 9999 NSW SKC QNH2999INS
BECMG 0707/0708 27010G15KT 9999 SCT008 QNH2997INS
BECMG 0709/0710 29010G15KT 9999 BKN005 QNH2999INS TX13/0706Z TN01/0623Z

Example: see airport list